sensor_id;sensor_type;location;lat;lon;timestamp;pressure;altitude;pressure_sealevel;temperature;humidity
45789;BME280;31492;54.856;26.318;2023-06-24T01:21:53;1021.9;;;21.7;56.7
45789;BME280;31492;54.856;26.318;2023-06-24T01:27:24;1022;;;20.6;62
45789;BME280;31492;54.856;26.318;2023-06-24T01:31:58;1022.1;;;20.5;62
45789;BME280;31492;54.856;26.318;2023-06-24T01:36:55;1022.1;;;20.5;62
45789;BME280;31492;54.856;26.318;2023-06-24T01:41:53;1022.2;;;20.5;62.2
45789;BME280;31492;54.856;26.318;2023-06-24T01:47:02;1022.2;;;20.6;62
45789;BME280;31492;54.856;26.318;2023-06-24T01:52:14;1022.2;;;20.5;62.2
45789;BME280;31492;54.856;26.318;2023-06-24T01:57:04;1022.3;;;20.5;62.4
45789;BME280;31492;54.856;26.318;2023-06-24T02:01:50;1022.3;;;20.4;62.5
45789;BME280;31492;54.856;26.318;2023-06-24T02:07:16;1022.3;;;20.4;62.6
45789;BME280;31492;54.856;26.318;2023-06-24T02:11:50;1022.3;;;20.3;62.8
45789;BME280;31492;54.856;26.318;2023-06-24T02:17:03;1022.4;;;20.3;62.8
45789;BME280;31492;54.856;26.318;2023-06-24T02:22:02;1022.4;;;20.3;62.6
45789;BME280;31492;54.856;26.318;2023-06-24T02:26:50;1022.4;;;20.3;62.7
45789;BME280;31492;54.856;26.318;2023-06-24T02:31:58;1022.4;;;20.2;63
45789;BME280;31492;54.856;26.318;2023-06-24T02:36:50;1022.5;;;20.1;63.2
45789;BME280;31492;54.856;26.318;2023-06-24T02:42:06;1022.5;;;20.1;63.3
45789;BME280;31492;54.856;26.318;2023-06-24T02:46:50;1022.6;;;20.1;63.4
45789;BME280;31492;54.856;26.318;2023-06-24T02:51:50;1022.6;;;20.1;63.5
45789;BME280;31492;54.856;26.318;2023-06-24T02:56:50;1022.6;;;20.1;63.8
45789;BME280;31492;54.856;26.318;2023-06-24T03:02:02;1022.7;;;20;64
45789;BME280;31492;54.856;26.318;2023-06-24T03:06:50;1022.8;;;20;64.2
45789;BME280;31492;54.856;26.318;2023-06-24T03:11:50;1022.8;;;20;64.2
45789;BME280;31492;54.856;26.318;2023-06-24T03:17:06;1022.8;;;20;64.3
45789;BME280;31492;54.856;26.318;2023-06-24T03:21:50;1022.8;;;20.1;64.3
45789;BME280;31492;54.856;26.318;2023-06-24T03:26:50;1022.8;;;20.1;64.5
45789;BME280;31492;54.856;26.318;2023-06-24T03:31:58;1022.8;;;20.1;64.7
45789;BME280;31492;54.856;26.318;2023-06-24T03:36:58;1022.8;;;20.1;64.9
45789;BME280;31492;54.856;26.318;2023-06-24T03:41:50;1022.8;;;20.2;65.1
45789;BME280;31492;54.856;26.318;2023-06-24T03:47:04;1022.8;;;20.2;65.1
45789;BME280;31492;54.856;26.318;2023-06-24T03:51:50;1022.7;;;20.3;65.3
45789;BME280;31492;54.856;26.318;2023-06-24T03:57:12;1022.7;;;20.3;65.4
45789;BME280;31492;54.856;26.318;2023-06-24T04:01:50;1022.7;;;20.5;65.2
45789;BME280;31492;54.856;26.318;2023-06-24T04:06:50;1022.8;;;20.6;65.2
45789;BME280;31492;54.856;26.318;2023-06-24T04:11:58;1022.8;;;20.7;65.3
45789;BME280;31492;54.856;26.318;2023-06-24T04:17:04;1022.9;;;20.9;64.9
45789;BME280;31492;54.856;26.318;2023-06-24T04:21:50;1022.9;;;21;64.7
45789;BME280;31492;54.856;26.318;2023-06-24T04:27:20;1022.9;;;21.1;64.4
45789;BME280;31492;54.856;26.318;2023-06-24T04:31:50;1022.9;;;21.2;64.3
45789;BME280;31492;54.856;26.318;2023-06-24T04:37:18;1022.9;;;21.3;64.2
45789;BME280;31492;54.856;26.318;2023-06-24T04:42:22;1022.9;;;21.4;64.3
45789;BME280;31492;54.856;26.318;2023-06-24T04:46:50;1022.9;;;21.4;64
45789;BME280;31492;54.856;26.318;2023-06-24T04:51:50;1022.9;;;21.5;63.5
45789;BME280;31492;54.856;26.318;2023-06-24T04:57:26;1022.8;;;21.6;63.1
45789;BME280;31492;54.856;26.318;2023-06-24T05:02:06;1022.9;;;21.7;62.8
45789;BME280;31492;54.856;26.318;2023-06-24T05:07:18;1022.9;;;21.8;62.5
45789;BME280;31492;54.856;26.318;2023-06-24T05:11:58;1022.9;;;21.9;62.1
45789;BME280;31492;54.856;26.318;2023-06-24T05:16:50;1023;;;22.1;61.7
45789;BME280;31492;54.856;26.318;2023-06-24T05:22:06;1023;;;22.2;61.8
45789;BME280;31492;54.856;26.318;2023-06-24T05:26:50;1023;;;22.3;61.9
45789;BME280;31492;54.856;26.318;2023-06-24T05:31:50;1023;;;22.5;61.2
45789;BME280;31492;54.856;26.318;2023-06-24T05:37:20;1023;;;22.6;60.9
45789;BME280;31492;54.856;26.318;2023-06-24T05:41:50;1023.1;;;22.8;59.7
45789;BME280;31492;54.856;26.318;2023-06-24T05:46:50;1023.1;;;23;59
45789;BME280;31492;54.856;26.318;2023-06-24T05:52:04;1023.1;;;23.1;58.2
45789;BME280;31492;54.856;26.318;2023-06-24T05:56:50;1023.1;;;23.3;58.5
45789;BME280;31492;54.856;26.318;2023-06-24T06:02:20;1023.1;;;23.4;57.8
45789;BME280;31492;54.856;26.318;2023-06-24T06:06:50;1023.1;;;23.6;56.4
45789;BME280;31492;54.856;26.318;2023-06-24T06:12:12;1023.1;;;23.8;56
45789;BME280;31492;54.856;26.318;2023-06-24T06:16:50;1023.1;;;24.1;55.6
45789;BME280;31492;54.856;26.318;2023-06-24T06:22:12;1023;;;24.6;55.4
45789;BME280;31492;54.856;26.318;2023-06-24T06:27:12;1023;;;24.9;54.2
45789;BME280;31492;54.856;26.318;2023-06-24T06:31:50;1023;;;25.2;53.8
45789;BME280;31492;54.856;26.318;2023-06-24T06:37:06;1023.1;;;25.3;53
45789;BME280;31492;54.856;26.318;2023-06-24T06:41:50;1023.1;;;25.4;52.9
45789;BME280;31492;54.856;26.318;2023-06-24T06:47:06;1023.1;;;25.7;51.9
45789;BME280;31492;54.856;26.318;2023-06-24T06:51:51;1023;;;25.9;51.3
45789;BME280;31492;54.856;26.318;2023-06-24T06:56:59;1023;;;26.1;50.8
45789;BME280;31492;54.856;26.318;2023-06-24T07:02:02;1023.1;;;26.4;49.8
45789;BME280;31492;54.856;26.318;2023-06-24T07:07:06;1023.1;;;26.9;48.8
45789;BME280;31492;54.856;26.318;2023-06-24T07:11:50;1023.1;;;27.4;47.1
45789;BME280;31492;54.856;26.318;2023-06-24T07:17:04;1023.1;;;28.1;46.1
45789;BME280;31492;54.856;26.318;2023-06-24T07:21:50;1023;;;28.8;44.5
45789;BME280;31492;54.856;26.318;2023-06-24T07:26:50;1022.9;;;29.6;43.8
45789;BME280;31492;54.856;26.318;2023-06-24T13:51:50;1022.8;;;33.1;29.6
45789;BME280;31492;54.856;26.318;2023-06-24T14:06:58;1022.8;;;31.5;30.8
45789;BME280;31492;54.856;26.318;2023-06-24T14:37:10;1022.7;;;30.8;32.1
45789;BME280;31492;54.856;26.318;2023-06-24T14:41:50;1022.7;;;30.1;32.6
45789;BME280;31492;54.856;26.318;2023-06-24T14:46:50;1022.7;;;29.9;32.7
45789;BME280;31492;54.856;26.318;2023-06-24T14:52:06;1022.8;;;29.6;33.3
45789;BME280;31492;54.856;26.318;2023-06-24T14:56:50;1022.7;;;29.3;33.6
45789;BME280;31492;54.856;26.318;2023-06-24T15:02:04;1022.7;;;29.1;34.5
45789;BME280;31492;54.856;26.318;2023-06-24T15:11:58;1022.7;;;28.7;33.5
45789;BME280;31492;54.856;26.318;2023-06-24T15:16:58;1022.7;;;28.5;33.7
45789;BME280;31492;54.856;26.318;2023-06-24T15:21:50;1022.7;;;28.3;33.7
45789;BME280;31492;54.856;26.318;2023-06-24T15:27:14;1022.7;;;28.2;33.6
45789;BME280;31492;54.856;26.318;2023-06-24T15:32:14;1022.7;;;28;33.8
45789;BME280;31492;54.856;26.318;2023-06-24T15:36:50;1022.6;;;27.9;33.8
45789;BME280;31492;54.856;26.318;2023-06-24T15:42:07;1022.6;;;27.8;32.7
45789;BME280;31492;54.856;26.318;2023-06-24T15:47:16;1022.6;;;27.6;33.2
45789;BME280;31492;54.856;26.318;2023-06-24T15:51:50;1022.6;;;27.6;33.4
45789;BME280;31492;54.856;26.318;2023-06-24T15:57:37;1022.6;;;27.5;33.8
45789;BME280;31492;54.856;26.318;2023-06-24T16:02:06;1022.5;;;27.3;34.4
45789;BME280;31492;54.856;26.318;2023-06-24T16:07:18;1022.6;;;27.2;35.2
45789;BME280;31492;54.856;26.318;2023-06-24T16:12:05;1022.6;;;27.1;34.3
45789;BME280;31492;54.856;26.318;2023-06-24T16:16:58;1022.6;;;27;34.6
45789;BME280;31492;54.856;26.318;2023-06-24T16:21:51;1022.5;;;26.9;35.8
45789;BME280;31492;54.856;26.318;2023-06-24T16:27:05;1022.6;;;26.8;35.9
45789;BME280;31492;54.856;26.318;2023-06-24T16:31:50;1022.6;;;26.7;35.5
45789;BME280;31492;54.856;26.318;2023-06-24T16:36:51;1022.5;;;26.6;36
45789;BME280;31492;54.856;26.318;2023-06-24T16:42:05;1022.6;;;26.5;37.1
45789;BME280;31492;54.856;26.318;2023-06-24T16:47:13;1022.6;;;26.4;36.9
45789;BME280;31492;54.856;26.318;2023-06-24T16:51:50;1022.6;;;26.4;37.4
45789;BME280;31492;54.856;26.318;2023-06-24T16:56:51;1022.6;;;26.3;37.5
45789;BME280;31492;54.856;26.318;2023-06-24T17:01:51;1022.6;;;26.2;38
45789;BME280;31492;54.856;26.318;2023-06-24T17:06:51;1022.6;;;26.2;38.5
45789;BME280;31492;54.856;26.318;2023-06-24T17:11:51;1022.6;;;26.2;39
45789;BME280;31492;54.856;26.318;2023-06-24T17:16:51;1022.6;;;26.1;39.2
45789;BME280;31492;54.856;26.318;2023-06-24T17:22:13;1022.7;;;26.1;39.5
45789;BME280;31492;54.856;26.318;2023-06-24T17:26:51;1022.7;;;26;40
45789;BME280;31492;54.856;26.318;2023-06-24T17:32:05;1022.7;;;25.9;40.3
45789;BME280;31492;54.856;26.318;2023-06-24T17:37:07;1022.7;;;25.8;41.3
45789;BME280;31492;54.856;26.318;2023-06-24T17:42:07;1022.7;;;25.7;41.4
45789;BME280;31492;54.856;26.318;2023-06-24T17:46:51;1022.6;;;25.6;41.7
45789;BME280;31492;54.856;26.318;2023-06-24T17:52:23;1022.6;;;25.5;42.4
45789;BME280;31492;54.856;26.318;2023-06-24T17:57:07;1022.6;;;25.4;42.8
45789;BME280;31492;54.856;26.318;2023-06-24T18:01:59;1022.7;;;25.4;43.2
45789;BME280;31492;54.856;26.318;2023-06-24T18:06:51;1022.7;;;25.3;43.7
45789;BME280;31492;54.856;26.318;2023-06-24T18:12:21;1022.7;;;25.2;44
45789;BME280;31492;54.856;26.318;2023-06-24T18:16:51;1022.8;;;25.1;44.3
45789;BME280;31492;54.856;26.318;2023-06-24T18:22:31;1022.8;;;25;44.3
45789;BME280;31492;54.856;26.318;2023-06-24T18:26:51;1022.8;;;24.9;44.2
45789;BME280;31492;54.856;26.318;2023-06-24T18:32:15;1022.8;;;24.8;44.6
45789;BME280;31492;54.856;26.318;2023-06-24T18:37:21;1022.9;;;24.6;44.8
45789;BME280;31492;54.856;26.318;2023-06-24T18:42:13;1022.9;;;24.5;45
45789;BME280;31492;54.856;26.318;2023-06-24T18:47:05;1023;;;24.3;45.7
45789;BME280;31492;54.856;26.318;2023-06-24T18:52:05;1023;;;24.2;46.2
45789;BME280;31492;54.856;26.318;2023-06-24T18:56:51;1023;;;24.1;46.4
45789;BME280;31492;54.856;26.318;2023-06-24T19:01:51;1023.1;;;24;46.9
45789;BME280;31492;54.856;26.318;2023-06-24T19:07:07;1023.1;;;23.9;47.2
45789;BME280;31492;54.856;26.318;2023-06-24T19:12:05;1023.1;;;23.7;47.5
45789;BME280;31492;54.856;26.318;2023-06-24T19:17:03;1023.1;;;23.5;47.9
45789;BME280;31492;54.856;26.318;2023-06-24T19:21:51;1023.2;;;23.4;47.6
45789;BME280;31492;54.856;26.318;2023-06-24T19:27:21;1023.2;;;23.3;47.6
45789;BME280;31492;54.856;26.318;2023-06-24T19:32:19;1023.2;;;23.2;47.9
45789;BME280;31492;54.856;26.318;2023-06-24T19:36:59;1023.3;;;23;48.2
45789;BME280;31492;54.856;26.318;2023-06-24T19:42:05;1023.3;;;22.9;48.3
45789;BME280;31492;54.856;26.318;2023-06-24T19:47:21;1023.3;;;22.8;48.6
45789;BME280;31492;54.856;26.318;2023-06-24T19:52:43;1023.4;;;22.8;48.7
45789;BME280;31492;54.856;26.318;2023-06-24T19:57:07;1023.4;;;22.6;49.1
45789;BME280;31492;54.856;26.318;2023-06-24T20:02:13;1023.5;;;22.5;49
45789;BME280;31492;54.856;26.318;2023-06-24T20:06:51;1023.5;;;22.4;49.1
45789;BME280;31492;54.856;26.318;2023-06-24T20:12:11;1023.6;;;22.3;49.4
45789;BME280;31492;54.856;26.318;2023-06-24T20:16:51;1023.7;;;22.3;49.7
45789;BME280;31492;54.856;26.318;2023-06-24T20:22:03;1023.7;;;22.2;49.9
45789;BME280;31492;54.856;26.318;2023-06-24T20:26:51;1023.7;;;22.2;50.2
45789;BME280;31492;54.856;26.318;2023-06-24T20:32:05;1023.8;;;22.1;50.4
45789;BME280;31492;54.856;26.318;2023-06-24T20:36:51;1023.8;;;22.1;50.3
45789;BME280;31492;54.856;26.318;2023-06-24T20:41:51;1023.8;;;22.1;50.3
45789;BME280;31492;54.856;26.318;2023-06-24T20:46:59;1023.8;;;22;50.2
45789;BME280;31492;54.856;26.318;2023-06-24T20:52:13;1023.8;;;22;50
45789;BME280;31492;54.856;26.318;2023-06-24T20:56:51;1023.8;;;21.9;49.8
45789;BME280;31492;54.856;26.318;2023-06-24T21:02:07;1023.8;;;21.8;49.9
45789;BME280;31492;54.856;26.318;2023-06-24T21:06:51;1023.9;;;21.7;49.7
45789;BME280;31492;54.856;26.318;2023-06-24T21:12:05;1023.9;;;21.6;49.7
45789;BME280;31492;54.856;26.318;2023-06-24T21:16:59;1023.9;;;21.5;49.9
45789;BME280;31492;54.856;26.318;2023-06-24T21:22:37;1024;;;21.5;49.8
45789;BME280;31492;54.856;26.318;2023-06-24T21:26:51;1024;;;21.4;49.7
45789;BME280;31492;54.856;26.318;2023-06-24T21:31:51;1024;;;21.2;49.8
45789;BME280;31492;54.856;26.318;2023-06-24T21:37:31;1024;;;21.1;49.9
45789;BME280;31492;54.856;26.318;2023-06-24T21:42:07;1024;;;20.9;49.9
